This is the latest recevied weather packets stored in our database for station/object KM4CNW. If no packets are shown the sender has not sent any weather packets the latest 10 day(s).
| Time | Temp. | Humidity | Pressure | Rain* | Wind** | Luminosity | Snow |
|---|---|---|---|---|---|---|---|
| 1777976120 | 10° C | 84% | 1010.2 hPa | 0 mm | - | 0 W/m² | - |
| 1777975816 | 10° C | 84% | 1010.3 hPa | 0 mm | - | 0 W/m² | - |
| 1777975513 | 10° C | 83% | 1010.1 hPa | 0 mm | - | 0 W/m² | - |
| 1777975210 | 10° C | 83% | 1010.3 hPa | 0 mm | - | 0 W/m² | - |
| 1777974906 | 10° C | 82% | 1010.3 hPa | 0 mm | - | 0 W/m² | - |
| 1777974602 | 10.56° C | 82% | 1010 hPa | 0 mm | - | 0 W/m² | - |
| 1777974299 | 10.56° C | 82% | 1010.1 hPa | 0 mm | - | 0 W/m² | - |
| 1777973995 | 10.56° C | 80% | 1010 hPa | 0 mm | - | 0 W/m² | - |
| 1777973691 | 10.56° C | 79% | 1009.9 hPa | 0 mm | - | 0 W/m² | - |
| 1777973389 | 11.11° C | 78% | 1009.8 hPa | 0 mm | - | 0 W/m² | - |
| 1777973086 | 11.67° C | 77% | 1009.8 hPa | 0 mm | - | 0 W/m² | - |
| 1777972784 | 11.67° C | 75% | 1009.8 hPa | 0 mm | - | 0 W/m² | - |
| 1777972481 | 11.67° C | 75% | 1009.9 hPa | 0 mm | - | 0 W/m² | - |
| 1777972179 | 12.22° C | 75% | 1009.5 hPa | 0 mm | - | 0 W/m² | - |
| 1777971877 | 12.22° C | 72% | 1009.7 hPa | 0 mm | - | 0 W/m² | - |
| 1777971574 | 12.78° C | 71% | 1009.3 hPa | 0 mm | - | 0 W/m² | - |
| 1777971272 | 12.78° C | 72% | 1009.6 hPa | 0 mm | - | 0 W/m² | - |
| 1777970970 | 12.78° C | 71% | 1009.5 hPa | 0 mm | - | 0 W/m² | - |
| 1777970668 | 12.78° C | 71% | 1009.5 hPa | 0 mm | - | 0 W/m² | - |
| 1777970366 | 12.78° C | 71% | 1009.4 hPa | 0 mm | - | 0 W/m² | - |
| 1777970063 | 13.33° C | 70% | 1009.3 hPa | 0 mm | - | 0 W/m² | - |
| 1777969759 | 12.78° C | 70% | 1009.2 hPa | 0 mm | - | 0 W/m² | - |
| 1777969454 | 13.33° C | 70% | 1009 hPa | 0 mm | - | 0 W/m² | - |
| 1777969152 | 13.33° C | 69% | 1009.1 hPa | 0 mm | - | 0 W/m² | - |
| 1777968849 | 13.33° C | 69% | 1009.3 hPa | 0 mm | - | 0 W/m² | - |
* Rain latest hour (hover to see other rain measurements)
** Current wind speed in m/s (hover to see current wind gust speed)